EKLV weather

Lemvig Airport
Lemvig, Central Jutland, Denmark

Public forecast

Using degrees Celsius for public forecast. Weather courtesy of forecast.io.

METAR (pilot weather report)

Closest report is Karup Airport, 29.7 nm (55.0 km) ESE. Retrieved 2019/05/23 02:34 UTC (0 seconds ago):

EKKA 230234Z AUTO 21004KT 4900 NCD 06/05 Q1015

TAF (pilot weather forecast)

Closest forecast is Karup Airport, 29.7 nm (55.0 km) ESE. Retrieved 2019/05/23 03:30 UTC (0 seconds ago):

TAF EKKA 230223Z 2303/2403 21006KT 9999 BKN020 TEMPO 2303/2305 4000 BR BKN008 TEMPO 2305/2307 BKN012 BECMG 2307/2310 22013KT TEMPO 2321/2403 6000 BKN012